sensor_id;sensor_type;location;lat;lon;timestamp;temperature;humidity
25906;DHT22;13713;52.552;13.204;2023-10-08T00:01:52;20.60;68.20
25906;DHT22;13713;52.552;13.204;2023-10-08T00:04:21;20.50;68.10
25906;DHT22;13713;52.552;13.204;2023-10-08T00:06:47;20.50;68.10
25906;DHT22;13713;52.552;13.204;2023-10-08T00:09:12;20.50;68.10
25906;DHT22;13713;52.552;13.204;2023-10-08T00:11:40;20.50;68.90
25906;DHT22;13713;52.552;13.204;2023-10-08T00:14:06;20.50;68.10
25906;DHT22;13713;52.552;13.204;2023-10-08T00:16:35;20.50;68.10
25906;DHT22;13713;52.552;13.204;2023-10-08T00:19:04;20.50;68.00
25906;DHT22;13713;52.552;13.204;2023-10-08T00:21:40;20.50;68.00
25906;DHT22;13713;52.552;13.204;2023-10-08T00:24:09;20.50;68.10
25906;DHT22;13713;52.552;13.204;2023-10-08T00:26:35;20.50;68.10
25906;DHT22;13713;52.552;13.204;2023-10-08T00:29:06;20.50;68.10
25906;DHT22;13713;52.552;13.204;2023-10-08T00:31:32;20.50;68.00
25906;DHT22;13713;52.552;13.204;2023-10-08T00:34:03;20.50;68.10
25906;DHT22;13713;52.552;13.204;2023-10-08T00:36:31;20.50;68.00
25906;DHT22;13713;52.552;13.204;2023-10-08T00:38:59;20.40;68.00
25906;DHT22;13713;52.552;13.204;2023-10-08T00:41:26;20.50;68.10
25906;DHT22;13713;52.552;13.204;2023-10-08T00:43:56;20.50;68.00
25906;DHT22;13713;52.552;13.204;2023-10-08T00:46:22;20.50;68.10
25906;DHT22;13713;52.552;13.204;2023-10-08T00:48:51;20.50;68.10
25906;DHT22;13713;52.552;13.204;2023-10-08T00:51:21;20.50;68.00
25906;DHT22;13713;52.552;13.204;2023-10-08T00:53:46;20.50;68.00
25906;DHT22;13713;52.552;13.204;2023-10-08T00:56:13;20.50;68.10
25906;DHT22;13713;52.552;13.204;2023-10-08T00:58:44;20.50;68.00
25906;DHT22;13713;52.552;13.204;2023-10-08T01:01:14;20.50;68.00
25906;DHT22;13713;52.552;13.204;2023-10-08T01:03:42;20.50;68.00
25906;DHT22;13713;52.552;13.204;2023-10-08T01:06:10;20.50;68.00
25906;DHT22;13713;52.552;13.204;2023-10-08T01:08:36;20.50;68.00
25906;DHT22;13713;52.552;13.204;2023-10-08T01:14:11;20.50;68.00
25906;DHT22;13713;52.552;13.204;2023-10-08T01:16:36;20.50;68.00
25906;DHT22;13713;52.552;13.204;2023-10-08T01:19:04;20.50;68.00
25906;DHT22;13713;52.552;13.204;2023-10-08T01:21:37;20.50;68.00
25906;DHT22;13713;52.552;13.204;2023-10-08T01:24:05;20.50;68.00
25906;DHT22;13713;52.552;13.204;2023-10-08T01:26:35;20.50;68.00
25906;DHT22;13713;52.552;13.204;2023-10-08T01:29:08;20.50;68.00
25906;DHT22;13713;52.552;13.204;2023-10-08T01:31:34;20.40;68.00
25906;DHT22;13713;52.552;13.204;2023-10-08T01:34:00;20.40;67.90
25906;DHT22;13713;52.552;13.204;2023-10-08T01:36:26;20.40;67.90
25906;DHT22;13713;52.552;13.204;2023-10-08T01:38:52;20.50;68.00
25906;DHT22;13713;52.552;13.204;2023-10-08T01:41:20;20.40;67.90
25906;DHT22;13713;52.552;13.204;2023-10-08T01:43:48;20.40;67.90
25906;DHT22;13713;52.552;13.204;2023-10-08T01:46:15;20.40;67.90
25906;DHT22;13713;52.552;13.204;2023-10-08T01:48:41;20.40;67.90
25906;DHT22;13713;52.552;13.204;2023-10-08T01:51:10;20.40;67.90
25906;DHT22;13713;52.552;13.204;2023-10-08T01:53:37;20.50;68.00
25906;DHT22;13713;52.552;13.204;2023-10-08T01:56:04;20.50;67.90
25906;DHT22;13713;52.552;13.204;2023-10-08T01:58:30;20.40;67.90
25906;DHT22;13713;52.552;13.204;2023-10-08T02:00:56;20.40;67.90
25906;DHT22;13713;52.552;13.204;2023-10-08T02:03:25;20.40;67.90
25906;DHT22;13713;52.552;13.204;2023-10-08T02:05:50;20.40;67.90
25906;DHT22;13713;52.552;13.204;2023-10-08T02:08:19;20.40;67.90
25906;DHT22;13713;52.552;13.204;2023-10-08T02:10:45;20.40;67.90
25906;DHT22;13713;52.552;13.204;2023-10-08T02:13:13;20.40;67.90
25906;DHT22;13713;52.552;13.204;2023-10-08T02:15:45;20.40;67.90
25906;DHT22;13713;52.552;13.204;2023-10-08T02:18:11;20.40;67.90
25906;DHT22;13713;52.552;13.204;2023-10-08T02:20:41;20.40;67.90
25906;DHT22;13713;52.552;13.204;2023-10-08T02:23:07;20.40;67.90
25906;DHT22;13713;52.552;13.204;2023-10-08T02:25:32;20.40;67.90
25906;DHT22;13713;52.552;13.204;2023-10-08T02:28:01;20.50;68.70
25906;DHT22;13713;52.552;13.204;2023-10-08T02:30:28;20.40;67.90
25906;DHT22;13713;52.552;13.204;2023-10-08T02:32:54;20.40;67.80
25906;DHT22;13713;52.552;13.204;2023-10-08T02:35:19;20.40;67.90
25906;DHT22;13713;52.552;13.204;2023-10-08T02:37:45;20.40;67.80
25906;DHT22;13713;52.552;13.204;2023-10-08T02:40:11;20.40;67.80
25906;DHT22;13713;52.552;13.204;2023-10-08T02:42:52;20.40;67.80
25906;DHT22;13713;52.552;13.204;2023-10-08T02:45:26;20.40;67.80
25906;DHT22;13713;52.552;13.204;2023-10-08T02:47:52;20.40;67.80
25906;DHT22;13713;52.552;13.204;2023-10-08T02:50:21;20.40;67.90
25906;DHT22;13713;52.552;13.204;2023-10-08T02:52:50;20.40;67.80
25906;DHT22;13713;52.552;13.204;2023-10-08T02:55:16;20.40;67.80
25906;DHT22;13713;52.552;13.204;2023-10-08T02:58:00;20.40;67.80
25906;DHT22;13713;52.552;13.204;2023-10-08T03:00:28;20.40;67.80
25906;DHT22;13713;52.552;13.204;2023-10-08T03:02:56;20.40;67.70
25906;DHT22;13713;52.552;13.204;2023-10-08T03:05:22;20.40;67.80
25906;DHT22;13713;52.552;13.204;2023-10-08T03:07:48;20.40;68.50
25906;DHT22;13713;52.552;13.204;2023-10-08T03:10:17;20.40;67.70
25906;DHT22;13713;52.552;13.204;2023-10-08T03:12:45;20.40;67.80
25906;DHT22;13713;52.552;13.204;2023-10-08T03:15:16;20.40;67.70
25906;DHT22;13713;52.552;13.204;2023-10-08T03:17:55;20.40;67.70
25906;DHT22;13713;52.552;13.204;2023-10-08T03:20:23;20.40;67.70
25906;DHT22;13713;52.552;13.204;2023-10-08T03:23:15;20.40;67.70
25906;DHT22;13713;52.552;13.204;2023-10-08T03:26:00;20.40;67.70
25906;DHT22;13713;52.552;13.204;2023-10-08T03:28:27;20.40;67.70
25906;DHT22;13713;52.552;13.204;2023-10-08T03:30:57;20.40;67.70
25906;DHT22;13713;52.552;13.204;2023-10-08T03:33:39;20.40;67.70
25906;DHT22;13713;52.552;13.204;2023-10-08T03:36:06;20.40;67.60
25906;DHT22;13713;52.552;13.204;2023-10-08T03:38:35;20.40;67.70
25906;DHT22;13713;52.552;13.204;2023-10-08T03:41:10;20.40;67.60
25906;DHT22;13713;52.552;13.204;2023-10-08T03:43:44;20.40;67.60
25906;DHT22;13713;52.552;13.204;2023-10-08T03:46:29;20.40;67.70
25906;DHT22;13713;52.552;13.204;2023-10-08T03:48:56;20.40;67.60
25906;DHT22;13713;52.552;13.204;2023-10-08T03:51:23;20.40;67.60
25906;DHT22;13713;52.552;13.204;2023-10-08T03:53:52;20.40;67.60
25906;DHT22;13713;52.552;13.204;2023-10-08T03:56:25;20.40;67.60
25906;DHT22;13713;52.552;13.204;2023-10-08T03:58:51;20.30;67.50
25906;DHT22;13713;52.552;13.204;2023-10-08T04:01:19;20.40;67.60
25906;DHT22;13713;52.552;13.204;2023-10-08T04:03:46;20.30;67.50
25906;DHT22;13713;52.552;13.204;2023-10-08T04:06:20;20.40;67.60
25906;DHT22;13713;52.552;13.204;2023-10-08T04:08:55;20.40;67.60
25906;DHT22;13713;52.552;13.204;2023-10-08T04:11:30;20.40;67.60
25906;DHT22;13713;52.552;13.204;2023-10-08T04:14:01;20.40;67.60
25906;DHT22;13713;52.552;13.204;2023-10-08T04:16:31;20.40;67.60
25906;DHT22;13713;52.552;13.204;2023-10-08T04:19:02;20.40;67.60
25906;DHT22;13713;52.552;13.204;2023-10-08T04:21:28;20.40;67.60
25906;DHT22;13713;52.552;13.204;2023-10-08T04:23:54;20.40;67.60
25906;DHT22;13713;52.552;13.204;2023-10-08T04:26:23;20.40;67.60
25906;DHT22;13713;52.552;13.204;2023-10-08T04:28:55;20.40;67.60
25906;DHT22;13713;52.552;13.204;2023-10-08T04:31:26;20.40;67.50
25906;DHT22;13713;52.552;13.204;2023-10-08T04:34:02;20.30;67.50
25906;DHT22;13713;52.552;13.204;2023-10-08T04:36:35;20.30;67.50
25906;DHT22;13713;52.552;13.204;2023-10-08T04:39:04;20.40;67.50
25906;DHT22;13713;52.552;13.204;2023-10-08T04:41:41;20.40;67.60
25906;DHT22;13713;52.552;13.204;2023-10-08T04:44:10;20.30;67.50
25906;DHT22;13713;52.552;13.204;2023-10-08T04:46:43;20.40;67.60
25906;DHT22;13713;52.552;13.204;2023-10-08T04:49:14;20.30;67.50
25906;DHT22;13713;52.552;13.204;2023-10-08T04:51:54;20.30;68.20
25906;DHT22;13713;52.552;13.204;2023-10-08T04:54:23;20.30;67.50
25906;DHT22;13713;52.552;13.204;2023-10-08T04:56:49;20.30;67.50
25906;DHT22;13713;52.552;13.204;2023-10-08T04:59:14;20.30;67.50
25906;DHT22;13713;52.552;13.204;2023-10-08T05:01:45;20.30;67.50
25906;DHT22;13713;52.552;13.204;2023-10-08T05:04:28;20.30;67.50
25906;DHT22;13713;52.552;13.204;2023-10-08T05:06:58;20.30;67.40
25906;DHT22;13713;52.552;13.204;2023-10-08T05:09:42;20.30;67.40
25906;DHT22;13713;52.552;13.204;2023-10-08T05:12:30;20.30;67.40
25906;DHT22;13713;52.552;13.204;2023-10-08T05:15:16;20.30;67.40
25906;DHT22;13713;52.552;13.204;2023-10-08T05:17:45;20.30;67.40
25906;DHT22;13713;52.552;13.204;2023-10-08T05:20:22;20.30;67.40
25906;DHT22;13713;52.552;13.204;2023-10-08T05:23:10;20.30;67.40
25906;DHT22;13713;52.552;13.204;2023-10-08T05:25:56;20.30;67.40
25906;DHT22;13713;52.552;13.204;2023-10-08T05:28:30;20.30;67.40
25906;DHT22;13713;52.552;13.204;2023-10-08T05:31:07;20.30;67.40
25906;DHT22;13713;52.552;13.204;2023-10-08T05:33:39;20.30;67.50
25906;DHT22;13713;52.552;13.204;2023-10-08T05:36:27;20.30;67.40
25906;DHT22;13713;52.552;13.204;2023-10-08T05:39:00;20.30;67.40
25906;DHT22;13713;52.552;13.204;2023-10-08T05:41:29;20.30;67.40
25906;DHT22;13713;52.552;13.204;2023-10-08T05:44:05;20.30;67.40
25906;DHT22;13713;52.552;13.204;2023-10-08T05:46:45;20.30;67.40
25906;DHT22;13713;52.552;13.204;2023-10-08T05:49:32;20.30;67.40
25906;DHT22;13713;52.552;13.204;2023-10-08T05:51:58;20.30;67.40
25906;DHT22;13713;52.552;13.204;2023-10-08T05:54:30;20.30;67.40
25906;DHT22;13713;52.552;13.204;2023-10-08T05:56:56;20.30;67.40
25906;DHT22;13713;52.552;13.204;2023-10-08T05:59:41;20.30;67.40
25906;DHT22;13713;52.552;13.204;2023-10-08T06:02:39;20.30;67.30
25906;DHT22;13713;52.552;13.204;2023-10-08T06:05:25;20.30;67.40
25906;DHT22;13713;52.552;13.204;2023-10-08T06:07:58;20.30;67.30
25906;DHT22;13713;52.552;13.204;2023-10-08T06:10:36;20.30;67.30
25906;DHT22;13713;52.552;13.204;2023-10-08T06:13:05;20.30;67.30
25906;DHT22;13713;52.552;13.204;2023-10-08T06:15:50;20.30;67.30
25906;DHT22;13713;52.552;13.204;2023-10-08T06:18:28;20.30;67.30
25906;DHT22;13713;52.552;13.204;2023-10-08T06:20:55;20.30;67.30
25906;DHT22;13713;52.552;13.204;2023-10-08T06:23:21;20.30;67.20
25906;DHT22;13713;52.552;13.204;2023-10-08T06:25:49;20.30;67.20
25906;DHT22;13713;52.552;13.204;2023-10-08T06:28:19;20.30;67.20
25906;DHT22;13713;52.552;13.204;2023-10-08T06:30:45;20.30;67.20
25906;DHT22;13713;52.552;13.204;2023-10-08T06:33:11;20.30;67.20
25906;DHT22;13713;52.552;13.204;2023-10-08T06:35:37;20.20;67.10
25906;DHT22;13713;52.552;13.204;2023-10-08T06:38:02;20.30;67.10
25906;DHT22;13713;52.552;13.204;2023-10-08T06:40:35;20.30;67.10
25906;DHT22;13713;52.552;13.204;2023-10-08T06:43:04;20.30;67.10
25906;DHT22;13713;52.552;13.204;2023-10-08T06:45:50;20.30;67.10
25906;DHT22;13713;52.552;13.204;2023-10-08T06:48:21;20.30;67.10
25906;DHT22;13713;52.552;13.204;2023-10-08T06:50:49;20.30;67.00
25906;DHT22;13713;52.552;13.204;2023-10-08T06:53:15;20.30;67.00
25906;DHT22;13713;52.552;13.204;2023-10-08T06:55:44;20.30;67.00
25906;DHT22;13713;52.552;13.204;2023-10-08T06:58:09;20.30;67.00
25906;DHT22;13713;52.552;13.204;2023-10-08T07:00:37;20.30;67.00
25906;DHT22;13713;52.552;13.204;2023-10-08T07:03:11;20.30;67.00
25906;DHT22;13713;52.552;13.204;2023-10-08T07:05:40;20.30;67.00
25906;DHT22;13713;52.552;13.204;2023-10-08T07:08:12;20.30;67.00
25906;DHT22;13713;52.552;13.204;2023-10-08T07:10:40;20.30;67.00
25906;DHT22;13713;52.552;13.204;2023-10-08T07:13:11;20.30;66.90
25906;DHT22;13713;52.552;13.204;2023-10-08T07:15:36;20.30;67.00
25906;DHT22;13713;52.552;13.204;2023-10-08T07:18:05;20.30;67.70
25906;DHT22;13713;52.552;13.204;2023-10-08T07:20:37;20.30;66.90
25906;DHT22;13713;52.552;13.204;2023-10-08T07:23:05;20.30;66.90
25906;DHT22;13713;52.552;13.204;2023-10-08T07:25:35;20.30;66.90
25906;DHT22;13713;52.552;13.204;2023-10-08T07:28:02;20.30;66.80
25906;DHT22;13713;52.552;13.204;2023-10-08T07:30:29;20.40;66.80
25906;DHT22;13713;52.552;13.204;2023-10-08T07:32:57;20.30;66.70
25906;DHT22;13713;52.552;13.204;2023-10-08T07:35:24;20.30;66.70
25906;DHT22;13713;52.552;13.204;2023-10-08T07:37:51;20.30;66.60
25906;DHT22;13713;52.552;13.204;2023-10-08T07:40:19;20.30;66.50
25906;DHT22;13713;52.552;13.204;2023-10-08T07:42:46;20.40;66.60
25906;DHT22;13713;52.552;13.204;2023-10-08T07:45:19;20.40;66.50
25906;DHT22;13713;52.552;13.204;2023-10-08T07:47:47;20.40;67.30
25906;DHT22;13713;52.552;13.204;2023-10-08T07:50:13;20.40;66.40
25906;DHT22;13713;52.552;13.204;2023-10-08T07:52:41;20.40;66.30
25906;DHT22;13713;52.552;13.204;2023-10-08T07:55:10;20.40;66.30
25906;DHT22;13713;52.552;13.204;2023-10-08T07:57:35;20.40;66.20
25906;DHT22;13713;52.552;13.204;2023-10-08T08:00:01;20.40;66.10
25906;DHT22;13713;52.552;13.204;2023-10-08T08:02:43;20.40;66.10
25906;DHT22;13713;52.552;13.204;2023-10-08T08:05:09;20.40;66.10
25906;DHT22;13713;52.552;13.204;2023-10-08T08:07:35;20.40;66.00
25906;DHT22;13713;52.552;13.204;2023-10-08T08:10:02;20.40;66.00
25906;DHT22;13713;52.552;13.204;2023-10-08T08:12:32;20.50;66.00
25906;DHT22;13713;52.552;13.204;2023-10-08T08:14:58;20.50;65.90
25906;DHT22;13713;52.552;13.204;2023-10-08T08:17:24;20.50;65.90
25906;DHT22;13713;52.552;13.204;2023-10-08T08:19:51;20.50;65.90
25906;DHT22;13713;52.552;13.204;2023-10-08T08:22:17;20.50;65.80
25906;DHT22;13713;52.552;13.204;2023-10-08T08:24:50;20.50;65.80
25906;DHT22;13713;52.552;13.204;2023-10-08T08:27:21;20.50;65.80
25906;DHT22;13713;52.552;13.204;2023-10-08T08:29:52;20.50;65.70
25906;DHT22;13713;52.552;13.204;2023-10-08T08:32:24;20.50;65.80
25906;DHT22;13713;52.552;13.204;2023-10-08T08:34:50;20.50;65.70
25906;DHT22;13713;52.552;13.204;2023-10-08T08:37:18;20.50;65.70
25906;DHT22;13713;52.552;13.204;2023-10-08T08:39:44;20.50;65.60
25906;DHT22;13713;52.552;13.204;2023-10-08T08:42:11;20.50;65.70
25906;DHT22;13713;52.552;13.204;2023-10-08T08:44:37;20.50;65.60
25906;DHT22;13713;52.552;13.204;2023-10-08T08:47:11;20.40;65.50
25906;DHT22;13713;52.552;13.204;2023-10-08T08:49:39;20.40;65.50
25906;DHT22;13713;52.552;13.204;2023-10-08T08:52:05;20.40;65.50
25906;DHT22;13713;52.552;13.204;2023-10-08T08:54:31;20.50;65.50
25906;DHT22;13713;52.552;13.204;2023-10-08T08:56:59;20.40;65.50
25906;DHT22;13713;52.552;13.204;2023-10-08T08:59:27;20.40;65.50
25906;DHT22;13713;52.552;13.204;2023-10-08T09:01:58;20.40;65.50
25906;DHT22;13713;52.552;13.204;2023-10-08T09:04:31;20.40;65.40
25906;DHT22;13713;52.552;13.204;2023-10-08T09:07:01;20.40;65.40
25906;DHT22;13713;52.552;13.204;2023-10-08T09:09:35;20.40;65.50
25906;DHT22;13713;52.552;13.204;2023-10-08T09:12:05;20.40;65.40
25906;DHT22;13713;52.552;13.204;2023-10-08T09:14:31;20.40;65.40
25906;DHT22;13713;52.552;13.204;2023-10-08T09:16:59;20.40;65.50
25906;DHT22;13713;52.552;13.204;2023-10-08T09:19:25;20.40;65.50
25906;DHT22;13713;52.552;13.204;2023-10-08T09:22:10;20.40;65.40
25906;DHT22;13713;52.552;13.204;2023-10-08T09:24:40;20.40;65.50
25906;DHT22;13713;52.552;13.204;2023-10-08T09:27:07;20.40;65.50
25906;DHT22;13713;52.552;13.204;2023-10-08T09:29:33;20.40;65.40
25906;DHT22;13713;52.552;13.204;2023-10-08T09:32:05;20.40;65.50
25906;DHT22;13713;52.552;13.204;2023-10-08T09:34:31;20.40;65.50
25906;DHT22;13713;52.552;13.204;2023-10-08T09:36:58;20.40;65.50
25906;DHT22;13713;52.552;13.204;2023-10-08T09:39:25;20.40;65.50
25906;DHT22;13713;52.552;13.204;2023-10-08T09:41:54;20.40;65.50
25906;DHT22;13713;52.552;13.204;2023-10-08T09:44:20;20.40;65.50
25906;DHT22;13713;52.552;13.204;2023-10-08T09:46:48;20.40;65.50
25906;DHT22;13713;52.552;13.204;2023-10-08T09:49:15;20.40;65.50
25906;DHT22;13713;52.552;13.204;2023-10-08T09:51:41;20.40;65.50
25906;DHT22;13713;52.552;13.204;2023-10-08T09:54:11;20.40;65.50
25906;DHT22;13713;52.552;13.204;2023-10-08T09:56:40;20.40;65.40
25906;DHT22;13713;52.552;13.204;2023-10-08T09:59:06;20.40;65.50
25906;DHT22;13713;52.552;13.204;2023-10-08T10:01:32;20.40;65.40
25906;DHT22;13713;52.552;13.204;2023-10-08T10:03:59;20.40;65.50
25906;DHT22;13713;52.552;13.204;2023-10-08T10:06:28;20.40;65.40
25906;DHT22;13713;52.552;13.204;2023-10-08T10:08:55;20.40;65.50
25906;DHT22;13713;52.552;13.204;2023-10-08T10:11:26;20.40;65.40
25906;DHT22;13713;52.552;13.204;2023-10-08T10:13:57;20.40;65.40
25906;DHT22;13713;52.552;13.204;2023-10-08T10:16:25;20.40;65.40
25906;DHT22;13713;52.552;13.204;2023-10-08T10:18:55;20.40;65.50
25906;DHT22;13713;52.552;13.204;2023-10-08T10:21:32;20.40;65.40
25906;DHT22;13713;52.552;13.204;2023-10-08T10:23:58;20.40;65.40
25906;DHT22;13713;52.552;13.204;2023-10-08T10:26:28;20.40;65.40
25906;DHT22;13713;52.552;13.204;2023-10-08T10:31:40;20.40;65.40
25906;DHT22;13713;52.552;13.204;2023-10-08T10:34:16;20.40;65.40
25906;DHT22;13713;52.552;13.204;2023-10-08T10:36:42;20.40;65.40
25906;DHT22;13713;52.552;13.204;2023-10-08T10:39:11;20.40;65.30
25906;DHT22;13713;52.552;13.204;2023-10-08T10:41:51;20.40;65.30
25906;DHT22;13713;52.552;13.204;2023-10-08T10:44:21;20.50;65.40
25906;DHT22;13713;52.552;13.204;2023-10-08T10:46:47;20.40;65.30
25906;DHT22;13713;52.552;13.204;2023-10-08T10:49:16;20.50;65.30
25906;DHT22;13713;52.552;13.204;2023-10-08T10:51:42;20.50;65.20
25906;DHT22;13713;52.552;13.204;2023-10-08T10:54:07;20.40;65.10
25906;DHT22;13713;52.552;13.204;2023-10-08T10:56:34;20.40;65.10
25906;DHT22;13713;52.552;13.204;2023-10-08T10:59:05;20.40;65.10
25906;DHT22;13713;52.552;13.204;2023-10-08T11:01:51;20.40;65.10
25906;DHT22;13713;52.552;13.204;2023-10-08T11:04:40;20.40;65.10
25906;DHT22;13713;52.552;13.204;2023-10-08T11:07:16;20.40;65.00
25906;DHT22;13713;52.552;13.204;2023-10-08T11:09:43;20.50;65.00
25906;DHT22;13713;52.552;13.204;2023-10-08T11:12:10;20.40;65.00
25906;DHT22;13713;52.552;13.204;2023-10-08T11:14:39;20.40;65.00
25906;DHT22;13713;52.552;13.204;2023-10-08T11:17:11;20.40;64.90
25906;DHT22;13713;52.552;13.204;2023-10-08T11:19:36;20.50;65.00
25906;DHT22;13713;52.552;13.204;2023-10-08T11:22:02;20.40;64.80
25906;DHT22;13713;52.552;13.204;2023-10-08T11:24:28;20.50;64.90
25906;DHT22;13713;52.552;13.204;2023-10-08T11:26:54;20.40;65.60
25906;DHT22;13713;52.552;13.204;2023-10-08T11:29:32;20.50;65.00
25906;DHT22;13713;52.552;13.204;2023-10-08T11:31:59;20.50;64.90
25906;DHT22;13713;52.552;13.204;2023-10-08T11:34:32;20.50;64.90
25906;DHT22;13713;52.552;13.204;2023-10-08T11:37:04;20.50;64.80
25906;DHT22;13713;52.552;13.204;2023-10-08T11:39:39;20.50;64.70
25906;DHT22;13713;52.552;13.204;2023-10-08T11:42:10;20.50;64.70
25906;DHT22;13713;52.552;13.204;2023-10-08T11:45:02;20.50;64.70
25906;DHT22;13713;52.552;13.204;2023-10-08T11:47:43;20.50;64.70
25906;DHT22;13713;52.552;13.204;2023-10-08T11:50:11;20.50;64.60
25906;DHT22;13713;52.552;13.204;2023-10-08T11:52:37;20.50;64.50
25906;DHT22;13713;52.552;13.204;2023-10-08T11:55:07;20.50;64.50
25906;DHT22;13713;52.552;13.204;2023-10-08T11:57:33;20.50;64.50
25906;DHT22;13713;52.552;13.204;2023-10-08T12:00:03;20.50;64.50
25906;DHT22;13713;52.552;13.204;2023-10-08T12:02:50;20.50;64.50
25906;DHT22;13713;52.552;13.204;2023-10-08T12:05:20;20.50;64.50
25906;DHT22;13713;52.552;13.204;2023-10-08T12:07:46;20.50;64.50
25906;DHT22;13713;52.552;13.204;2023-10-08T12:10:12;20.50;64.40
25906;DHT22;13713;52.552;13.204;2023-10-08T12:12:38;20.50;64.40
25906;DHT22;13713;52.552;13.204;2023-10-08T12:15:04;20.50;64.40
25906;DHT22;13713;52.552;13.204;2023-10-08T12:17:30;20.50;64.40
25906;DHT22;13713;52.552;13.204;2023-10-08T12:20:07;20.50;64.40
25906;DHT22;13713;52.552;13.204;2023-10-08T12:22:51;20.50;64.30
25906;DHT22;13713;52.552;13.204;2023-10-08T12:25:17;20.50;64.30
25906;DHT22;13713;52.552;13.204;2023-10-08T12:27:42;20.50;64.30
25906;DHT22;13713;52.552;13.204;2023-10-08T12:30:09;20.50;64.30
25906;DHT22;13713;52.552;13.204;2023-10-08T12:32:39;20.50;64.20
25906;DHT22;13713;52.552;13.204;2023-10-08T12:35:08;20.50;64.30
25906;DHT22;13713;52.552;13.204;2023-10-08T12:37:41;20.50;64.20
25906;DHT22;13713;52.552;13.204;2023-10-08T12:40:09;20.50;64.50
25906;DHT22;13713;52.552;13.204;2023-10-08T12:42:53;20.50;64.10
25906;DHT22;13713;52.552;13.204;2023-10-08T12:45:20;20.50;64.10
25906;DHT22;13713;52.552;13.204;2023-10-08T12:47:49;20.50;64.00
25906;DHT22;13713;52.552;13.204;2023-10-08T12:50:18;20.50;63.90
25906;DHT22;13713;52.552;13.204;2023-10-08T12:53:08;20.50;63.90
25906;DHT22;13713;52.552;13.204;2023-10-08T12:55:39;20.50;63.90
25906;DHT22;13713;52.552;13.204;2023-10-08T12:58:08;20.50;63.80
25906;DHT22;13713;52.552;13.204;2023-10-08T13:00:39;20.50;63.80
25906;DHT22;13713;52.552;13.204;2023-10-08T13:03:07;20.50;63.80
25906;DHT22;13713;52.552;13.204;2023-10-08T13:05:49;20.50;63.80
25906;DHT22;13713;52.552;13.204;2023-10-08T13:08:20;20.50;63.80
25906;DHT22;13713;52.552;13.204;2023-10-08T13:10:46;20.50;63.70
25906;DHT22;13713;52.552;13.204;2023-10-08T13:13:12;20.50;63.80
25906;DHT22;13713;52.552;13.204;2023-10-08T13:15:38;20.50;63.70
25906;DHT22;13713;52.552;13.204;2023-10-08T13:18:04;20.50;63.70
25906;DHT22;13713;52.552;13.204;2023-10-08T13:20:30;20.50;63.70
25906;DHT22;13713;52.552;13.204;2023-10-08T13:23:02;20.50;63.80
25906;DHT22;13713;52.552;13.204;2023-10-08T13:25:30;20.50;63.70
25906;DHT22;13713;52.552;13.204;2023-10-08T13:27:59;20.60;63.70
25906;DHT22;13713;52.552;13.204;2023-10-08T13:30:26;20.50;63.70
25906;DHT22;13713;52.552;13.204;2023-10-08T13:32:52;20.50;63.60
25906;DHT22;13713;52.552;13.204;2023-10-08T13:35:19;20.50;63.60
25906;DHT22;13713;52.552;13.204;2023-10-08T13:37:44;20.50;63.60
25906;DHT22;13713;52.552;13.204;2023-10-08T13:40:13;20.60;63.70
25906;DHT22;13713;52.552;13.204;2023-10-08T13:42:43;20.50;63.50
25906;DHT22;13713;52.552;13.204;2023-10-08T13:45:10;20.50;63.50
25906;DHT22;13713;52.552;13.204;2023-10-08T13:47:42;20.50;63.50
25906;DHT22;13713;52.552;13.204;2023-10-08T13:50:07;20.50;63.50
25906;DHT22;13713;52.552;13.204;2023-10-08T13:52:36;20.50;64.30
25906;DHT22;13713;52.552;13.204;2023-10-08T13:55:05;20.50;63.80
25906;DHT22;13713;52.552;13.204;2023-10-08T13:57:32;20.50;63.40
25906;DHT22;13713;52.552;13.204;2023-10-08T13:59:58;20.50;63.40
25906;DHT22;13713;52.552;13.204;2023-10-08T14:02:25;20.50;63.40
25906;DHT22;13713;52.552;13.204;2023-10-08T14:04:51;20.50;63.40
25906;DHT22;13713;52.552;13.204;2023-10-08T14:07:18;20.50;63.40
25906;DHT22;13713;52.552;13.204;2023-10-08T14:09:44;20.50;63.40
25906;DHT22;13713;52.552;13.204;2023-10-08T14:12:11;20.50;63.40
25906;DHT22;13713;52.552;13.204;2023-10-08T14:14:36;20.60;63.50
25906;DHT22;13713;52.552;13.204;2023-10-08T14:17:06;20.50;63.40
25906;DHT22;13713;52.552;13.204;2023-10-08T14:19:32;20.50;63.40
25906;DHT22;13713;52.552;13.204;2023-10-08T14:22:16;20.50;63.40
25906;DHT22;13713;52.552;13.204;2023-10-08T14:24:44;20.50;63.40
25906;DHT22;13713;52.552;13.204;2023-10-08T14:27:11;20.50;63.30
25906;DHT22;13713;52.552;13.204;2023-10-08T14:29:37;20.50;63.40
25906;DHT22;13713;52.552;13.204;2023-10-08T14:32:06;20.50;63.30
25906;DHT22;13713;52.552;13.204;2023-10-08T14:34:37;20.50;63.40
25906;DHT22;13713;52.552;13.204;2023-10-08T14:37:11;20.50;63.30
25906;DHT22;13713;52.552;13.204;2023-10-08T14:39:55;20.50;63.40
25906;DHT22;13713;52.552;13.204;2023-10-08T14:42:39;20.50;63.30
25906;DHT22;13713;52.552;13.204;2023-10-08T14:45:24;20.50;63.40
25906;DHT22;13713;52.552;13.204;2023-10-08T14:47:52;20.50;63.30
25906;DHT22;13713;52.552;13.204;2023-10-08T14:50:18;20.50;63.30
25906;DHT22;13713;52.552;13.204;2023-10-08T14:52:44;20.50;63.30
25906;DHT22;13713;52.552;13.204;2023-10-08T14:55:10;20.50;63.30
25906;DHT22;13713;52.552;13.204;2023-10-08T14:57:38;20.40;63.20
25906;DHT22;13713;52.552;13.204;2023-10-08T15:00:04;20.50;63.20
25906;DHT22;13713;52.552;13.204;2023-10-08T15:02:30;20.50;63.20
25906;DHT22;13713;52.552;13.204;2023-10-08T15:04:56;20.50;63.20
25906;DHT22;13713;52.552;13.204;2023-10-08T15:07:23;20.50;63.20
25906;DHT22;13713;52.552;13.204;2023-10-08T15:09:48;20.50;63.20
25906;DHT22;13713;52.552;13.204;2023-10-08T15:12:15;20.50;63.20
25906;DHT22;13713;52.552;13.204;2023-10-08T15:14:42;20.50;63.20
25906;DHT22;13713;52.552;13.204;2023-10-08T15:17:07;20.50;63.20
25906;DHT22;13713;52.552;13.204;2023-10-08T15:19:34;20.50;63.10
25906;DHT22;13713;52.552;13.204;2023-10-08T15:21:59;20.40;63.10
25906;DHT22;13713;52.552;13.204;2023-10-08T15:24:26;20.50;63.10
25906;DHT22;13713;52.552;13.204;2023-10-08T15:26:52;20.40;63.10
25906;DHT22;13713;52.552;13.204;2023-10-08T15:29:18;20.40;63.10
25906;DHT22;13713;52.552;13.204;2023-10-08T15:31:46;20.50;63.10
25906;DHT22;13713;52.552;13.204;2023-10-08T15:34:11;20.40;63.00
25906;DHT22;13713;52.552;13.204;2023-10-08T15:36:38;20.50;63.10
25906;DHT22;13713;52.552;13.204;2023-10-08T15:39:04;20.40;63.20